sensor_id;sensor_type;location;lat;lon;timestamp;P1;durP1;ratioP1;P2;durP2;ratioP2
54167;SDS011;40072;50.958;3.592;2022-11-20T00:03:40;89.78;;;41.35;;
54167;SDS011;40072;50.958;3.592;2022-11-20T00:06:07;94.80;;;43.40;;
54167;SDS011;40072;50.958;3.592;2022-11-20T00:08:34;97.10;;;41.47;;
54167;SDS011;40072;50.958;3.592;2022-11-20T00:13:30;96.07;;;41.40;;
54167;SDS011;40072;50.958;3.592;2022-11-20T00:15:56;87.97;;;41.70;;
54167;SDS011;40072;50.958;3.592;2022-11-20T00:18:23;84.95;;;40.60;;
54167;SDS011;40072;50.958;3.592;2022-11-20T00:20:49;87.95;;;39.42;;
54167;SDS011;40072;50.958;3.592;2022-11-20T00:23:15;81.47;;;39.63;;
54167;SDS011;40072;50.958;3.592;2022-11-20T00:25:40;84.18;;;40.42;;
54167;SDS011;40072;50.958;3.592;2022-11-20T00:28:06;82.70;;;38.13;;
54167;SDS011;40072;50.958;3.592;2022-11-20T00:30:31;84.80;;;39.08;;
54167;SDS011;40072;50.958;3.592;2022-11-20T00:32:57;84.18;;;37.85;;
54167;SDS011;40072;50.958;3.592;2022-11-20T00:35:23;81.88;;;38.20;;
54167;SDS011;40072;50.958;3.592;2022-11-20T00:37:48;77.70;;;37.65;;
54167;SDS011;40072;50.958;3.592;2022-11-20T00:40:14;75.90;;;36.35;;
54167;SDS011;40072;50.958;3.592;2022-11-20T00:42:40;81.35;;;37.70;;
54167;SDS011;40072;50.958;3.592;2022-11-20T00:45:05;73.22;;;36.45;;
54167;SDS011;40072;50.958;3.592;2022-11-20T00:47:32;76.28;;;37.67;;
54167;SDS011;40072;50.958;3.592;2022-11-20T00:49:57;81.40;;;38.83;;
54167;SDS011;40072;50.958;3.592;2022-11-20T00:52:23;85.80;;;40.13;;
54167;SDS011;40072;50.958;3.592;2022-11-20T00:54:48;84.82;;;39.58;;
54167;SDS011;40072;50.958;3.592;2022-11-20T00:57:14;80.40;;;37.95;;
54167;SDS011;40072;50.958;3.592;2022-11-20T00:59:39;83.03;;;38.15;;
54167;SDS011;40072;50.958;3.592;2022-11-20T01:02:05;76.88;;;38.50;;
54167;SDS011;40072;50.958;3.592;2022-11-20T01:04:31;81.10;;;39.05;;
54167;SDS011;40072;50.958;3.592;2022-11-20T01:06:56;85.25;;;38.45;;
54167;SDS011;40072;50.958;3.592;2022-11-20T01:09:22;70.53;;;35.80;;
54167;SDS011;40072;50.958;3.592;2022-11-20T01:11:47;85.97;;;38.17;;
54167;SDS011;40072;50.958;3.592;2022-11-20T01:14:14;73.70;;;37.45;;
54167;SDS011;40072;50.958;3.592;2022-11-20T01:16:46;81.38;;;37.97;;
54167;SDS011;40072;50.958;3.592;2022-11-20T01:19:15;77.30;;;37.78;;
54167;SDS011;40072;50.958;3.592;2022-11-20T01:21:42;78.00;;;38.20;;
54167;SDS011;40072;50.958;3.592;2022-11-20T01:24:13;76.22;;;37.58;;
54167;SDS011;40072;50.958;3.592;2022-11-20T01:26:41;79.32;;;38.40;;
54167;SDS011;40072;50.958;3.592;2022-11-20T01:29:15;76.45;;;37.17;;
54167;SDS011;40072;50.958;3.592;2022-11-20T01:31:46;76.05;;;37.33;;
54167;SDS011;40072;50.958;3.592;2022-11-20T01:34:13;71.72;;;37.80;;
54167;SDS011;40072;50.958;3.592;2022-11-20T01:36:41;79.10;;;38.42;;
54167;SDS011;40072;50.958;3.592;2022-11-20T01:39:11;85.28;;;41.20;;
54167;SDS011;40072;50.958;3.592;2022-11-20T01:41:39;79.55;;;38.72;;
54167;SDS011;40072;50.958;3.592;2022-11-20T01:50:04;92.30;;;42.45;;
54167;SDS011;40072;50.958;3.592;2022-11-20T01:57:31;84.00;;;39.28;;
54167;SDS011;40072;50.958;3.592;2022-11-20T02:00:03;80.30;;;37.43;;
54167;SDS011;40072;50.958;3.592;2022-11-20T02:02:31;84.93;;;40.35;;
54167;SDS011;40072;50.958;3.592;2022-11-20T02:04:59;80.07;;;38.97;;
54167;SDS011;40072;50.958;3.592;2022-11-20T02:07:29;79.20;;;38.28;;
54167;SDS011;40072;50.958;3.592;2022-11-20T02:09:55;78.20;;;38.35;;
54167;SDS011;40072;50.958;3.592;2022-11-20T02:12:21;75.72;;;38.83;;
54167;SDS011;40072;50.958;3.592;2022-11-20T02:15:05;75.70;;;38.03;;
54167;SDS011;40072;50.958;3.592;2022-11-20T02:17:31;86.93;;;39.33;;
54167;SDS011;40072;50.958;3.592;2022-11-20T02:19:56;79.30;;;39.80;;
54167;SDS011;40072;50.958;3.592;2022-11-20T02:22:29;85.72;;;40.58;;
54167;SDS011;40072;50.958;3.592;2022-11-20T02:25:00;86.13;;;39.90;;
54167;SDS011;40072;50.958;3.592;2022-11-20T02:27:29;80.60;;;39.88;;
54167;SDS011;40072;50.958;3.592;2022-11-20T02:29:56;83.53;;;39.38;;
54167;SDS011;40072;50.958;3.592;2022-11-20T02:34:52;80.88;;;40.42;;
54167;SDS011;40072;50.958;3.592;2022-11-20T02:37:18;81.32;;;38.75;;
54167;SDS011;40072;50.958;3.592;2022-11-20T02:39:49;86.70;;;41.13;;
54167;SDS011;40072;50.958;3.592;2022-11-20T02:42:16;89.95;;;40.28;;
54167;SDS011;40072;50.958;3.592;2022-11-20T02:44:42;80.15;;;38.20;;
54167;SDS011;40072;50.958;3.592;2022-11-20T02:47:08;77.80;;;38.53;;
54167;SDS011;40072;50.958;3.592;2022-11-20T02:49:34;80.10;;;38.40;;
54167;SDS011;40072;50.958;3.592;2022-11-20T02:51:59;82.50;;;38.92;;
54167;SDS011;40072;50.958;3.592;2022-11-20T02:54:25;91.63;;;40.60;;
54167;SDS011;40072;50.958;3.592;2022-11-20T02:56:51;88.10;;;40.92;;
54167;SDS011;40072;50.958;3.592;2022-11-20T02:59:17;82.75;;;39.58;;
54167;SDS011;40072;50.958;3.592;2022-11-20T03:01:42;94.78;;;40.15;;
54167;SDS011;40072;50.958;3.592;2022-11-20T03:04:08;84.30;;;41.25;;
54167;SDS011;40072;50.958;3.592;2022-11-20T03:06:33;86.38;;;40.08;;
54167;SDS011;40072;50.958;3.592;2022-11-20T03:08:59;92.88;;;40.65;;
54167;SDS011;40072;50.958;3.592;2022-11-20T03:11:25;83.28;;;40.30;;
54167;SDS011;40072;50.958;3.592;2022-11-20T03:13:51;98.55;;;41.67;;
54167;SDS011;40072;50.958;3.592;2022-11-20T03:16:18;90.55;;;41.25;;
54167;SDS011;40072;50.958;3.592;2022-11-20T03:18:45;95.90;;;41.23;;
54167;SDS011;40072;50.958;3.592;2022-11-20T03:21:12;104.00;;;42.58;;
54167;SDS011;40072;50.958;3.592;2022-11-20T03:23:39;132.40;;;49.40;;
54167;SDS011;40072;50.958;3.592;2022-11-20T03:26:09;112.72;;;46.15;;
54167;SDS011;40072;50.958;3.592;2022-11-20T03:28:39;116.20;;;48.20;;
54167;SDS011;40072;50.958;3.592;2022-11-20T03:31:06;123.30;;;46.70;;
54167;SDS011;40072;50.958;3.592;2022-11-20T03:33:37;117.65;;;45.08;;
54167;SDS011;40072;50.958;3.592;2022-11-20T03:36:03;127.70;;;48.80;;
54167;SDS011;40072;50.958;3.592;2022-11-20T03:38:31;133.90;;;48.88;;
54167;SDS011;40072;50.958;3.592;2022-11-20T03:40:58;131.45;;;49.33;;
54167;SDS011;40072;50.958;3.592;2022-11-20T03:43:25;146.73;;;50.08;;
54167;SDS011;40072;50.958;3.592;2022-11-20T03:45:51;163.27;;;54.17;;
54167;SDS011;40072;50.958;3.592;2022-11-20T03:48:17;161.02;;;54.72;;
54167;SDS011;40072;50.958;3.592;2022-11-20T03:50:43;178.30;;;54.97;;
54167;SDS011;40072;50.958;3.592;2022-11-20T03:53:08;162.82;;;54.67;;
54167;SDS011;40072;50.958;3.592;2022-11-20T03:55:34;181.45;;;54.33;;
54167;SDS011;40072;50.958;3.592;2022-11-20T03:57:59;183.30;;;55.70;;
54167;SDS011;40072;50.958;3.592;2022-11-20T04:00:25;183.75;;;55.40;;
54167;SDS011;40072;50.958;3.592;2022-11-20T04:02:51;174.50;;;54.15;;
54167;SDS011;40072;50.958;3.592;2022-11-20T04:05:16;176.55;;;54.95;;
54167;SDS011;40072;50.958;3.592;2022-11-20T04:07:42;172.82;;;51.33;;
54167;SDS011;40072;50.958;3.592;2022-11-20T04:10:08;190.18;;;54.20;;
54167;SDS011;40072;50.958;3.592;2022-11-20T04:12:33;167.18;;;52.97;;
54167;SDS011;40072;50.958;3.592;2022-11-20T04:14:59;171.43;;;55.03;;
54167;SDS011;40072;50.958;3.592;2022-11-20T04:17:25;169.55;;;53.22;;
54167;SDS011;40072;50.958;3.592;2022-11-20T04:19:51;178.55;;;54.55;;
54167;SDS011;40072;50.958;3.592;2022-11-20T04:22:16;186.07;;;55.20;;
54167;SDS011;40072;50.958;3.592;2022-11-20T04:24:42;178.38;;;56.25;;
54167;SDS011;40072;50.958;3.592;2022-11-20T04:27:07;177.20;;;54.65;;
54167;SDS011;40072;50.958;3.592;2022-11-20T04:29:33;181.93;;;54.97;;
54167;SDS011;40072;50.958;3.592;2022-11-20T04:31:59;180.13;;;53.63;;
54167;SDS011;40072;50.958;3.592;2022-11-20T04:34:24;179.52;;;56.05;;
54167;SDS011;40072;50.958;3.592;2022-11-20T04:36:50;188.52;;;56.65;;
54167;SDS011;40072;50.958;3.592;2022-11-20T04:39:15;203.45;;;58.92;;
54167;SDS011;40072;50.958;3.592;2022-11-20T04:41:42;184.27;;;55.40;;
54167;SDS011;40072;50.958;3.592;2022-11-20T04:44:07;200.18;;;56.25;;
54167;SDS011;40072;50.958;3.592;2022-11-20T04:46:35;175.63;;;55.78;;
54167;SDS011;40072;50.958;3.592;2022-11-20T04:49:02;160.10;;;53.63;;
54167;SDS011;40072;50.958;3.592;2022-11-20T04:51:29;157.00;;;50.65;;
54167;SDS011;40072;50.958;3.592;2022-11-20T04:53:54;163.20;;;54.00;;
54167;SDS011;40072;50.958;3.592;2022-11-20T04:56:21;168.20;;;53.33;;
54167;SDS011;40072;50.958;3.592;2022-11-20T04:58:47;153.45;;;50.67;;
54167;SDS011;40072;50.958;3.592;2022-11-20T05:01:14;145.55;;;49.88;;
54167;SDS011;40072;50.958;3.592;2022-11-20T05:03:41;134.20;;;48.45;;
54167;SDS011;40072;50.958;3.592;2022-11-20T05:06:09;153.93;;;51.63;;
54167;SDS011;40072;50.958;3.592;2022-11-20T05:08:39;155.40;;;49.90;;
54167;SDS011;40072;50.958;3.592;2022-11-20T05:11:06;151.85;;;51.25;;
54167;SDS011;40072;50.958;3.592;2022-11-20T05:13:36;164.23;;;51.42;;
54167;SDS011;40072;50.958;3.592;2022-11-20T05:16:04;158.88;;;50.20;;
54167;SDS011;40072;50.958;3.592;2022-11-20T05:18:31;155.45;;;50.90;;
54167;SDS011;40072;50.958;3.592;2022-11-20T05:20:58;148.35;;;48.17;;
54167;SDS011;40072;50.958;3.592;2022-11-20T05:23:24;144.15;;;48.67;;
54167;SDS011;40072;50.958;3.592;2022-11-20T05:25:54;142.40;;;49.80;;
54167;SDS011;40072;50.958;3.592;2022-11-20T05:28:20;124.90;;;44.50;;
54167;SDS011;40072;50.958;3.592;2022-11-20T05:30:46;130.80;;;46.72;;
54167;SDS011;40072;50.958;3.592;2022-11-20T05:33:13;128.20;;;46.50;;
54167;SDS011;40072;50.958;3.592;2022-11-20T05:35:38;118.20;;;44.63;;
54167;SDS011;40072;50.958;3.592;2022-11-20T05:38:04;111.13;;;42.97;;
54167;SDS011;40072;50.958;3.592;2022-11-20T05:40:30;109.15;;;44.25;;
54167;SDS011;40072;50.958;3.592;2022-11-20T05:42:55;112.50;;;42.50;;
54167;SDS011;40072;50.958;3.592;2022-11-20T05:45:21;104.53;;;41.75;;
54167;SDS011;40072;50.958;3.592;2022-11-20T05:47:47;100.95;;;42.15;;
54167;SDS011;40072;50.958;3.592;2022-11-20T05:50:13;105.80;;;43.42;;
54167;SDS011;40072;50.958;3.592;2022-11-20T05:52:39;103.97;;;43.33;;
54167;SDS011;40072;50.958;3.592;2022-11-20T05:55:05;108.18;;;47.05;;
54167;SDS011;40072;50.958;3.592;2022-11-20T05:57:31;116.05;;;46.58;;
54167;SDS011;40072;50.958;3.592;2022-11-20T05:59:57;120.80;;;45.58;;
54167;SDS011;40072;50.958;3.592;2022-11-20T06:02:23;118.35;;;45.72;;
54167;SDS011;40072;50.958;3.592;2022-11-20T06:04:48;110.82;;;43.88;;
54167;SDS011;40072;50.958;3.592;2022-11-20T06:07:14;114.35;;;43.65;;
54167;SDS011;40072;50.958;3.592;2022-11-20T06:09:40;116.85;;;45.05;;
54167;SDS011;40072;50.958;3.592;2022-11-20T06:12:06;108.68;;;43.60;;
54167;SDS011;40072;50.958;3.592;2022-11-20T06:14:32;123.38;;;46.63;;
54167;SDS011;40072;50.958;3.592;2022-11-20T06:16:58;125.15;;;46.38;;
54167;SDS011;40072;50.958;3.592;2022-11-20T06:19:23;116.85;;;44.95;;
54167;SDS011;40072;50.958;3.592;2022-11-20T06:21:49;120.57;;;44.92;;
54167;SDS011;40072;50.958;3.592;2022-11-20T06:24:15;124.50;;;46.75;;
54167;SDS011;40072;50.958;3.592;2022-11-20T06:26:41;124.43;;;45.33;;
54167;SDS011;40072;50.958;3.592;2022-11-20T06:29:07;129.07;;;47.05;;
54167;SDS011;40072;50.958;3.592;2022-11-20T06:31:33;127.03;;;48.38;;
54167;SDS011;40072;50.958;3.592;2022-11-20T06:34:00;117.57;;;45.63;;
54167;SDS011;40072;50.958;3.592;2022-11-20T06:36:26;119.15;;;46.28;;
54167;SDS011;40072;50.958;3.592;2022-11-20T06:38:52;117.28;;;46.55;;
54167;SDS011;40072;50.958;3.592;2022-11-20T06:41:18;112.90;;;44.53;;
54167;SDS011;40072;50.958;3.592;2022-11-20T06:43:45;111.82;;;44.15;;
54167;SDS011;40072;50.958;3.592;2022-11-20T06:46:12;105.65;;;42.75;;
54167;SDS011;40072;50.958;3.592;2022-11-20T06:48:39;126.20;;;46.22;;
54167;SDS011;40072;50.958;3.592;2022-11-20T06:51:06;112.85;;;44.05;;
54167;SDS011;40072;50.958;3.592;2022-11-20T06:53:32;112.35;;;43.92;;
54167;SDS011;40072;50.958;3.592;2022-11-20T06:55:59;109.50;;;43.00;;
54167;SDS011;40072;50.958;3.592;2022-11-20T06:58:27;112.00;;;44.53;;
54167;SDS011;40072;50.958;3.592;2022-11-20T07:05:49;108.72;;;42.08;;
54167;SDS011;40072;50.958;3.592;2022-11-20T07:08:15;113.18;;;44.55;;
54167;SDS011;40072;50.958;3.592;2022-11-20T07:10:40;111.68;;;44.85;;
54167;SDS011;40072;50.958;3.592;2022-11-20T07:13:06;117.15;;;45.58;;
54167;SDS011;40072;50.958;3.592;2022-11-20T07:15:32;123.90;;;46.40;;
54167;SDS011;40072;50.958;3.592;2022-11-20T07:18:00;120.53;;;44.88;;
54167;SDS011;40072;50.958;3.592;2022-11-20T07:20:26;118.32;;;43.92;;
54167;SDS011;40072;50.958;3.592;2022-11-20T07:22:53;120.30;;;42.35;;
54167;SDS011;40072;50.958;3.592;2022-11-20T07:25:19;125.93;;;44.03;;
54167;SDS011;40072;50.958;3.592;2022-11-20T07:27:45;124.03;;;43.88;;
54167;SDS011;40072;50.958;3.592;2022-11-20T07:30:11;124.20;;;42.15;;
54167;SDS011;40072;50.958;3.592;2022-11-20T07:32:37;142.07;;;44.92;;
54167;SDS011;40072;50.958;3.592;2022-11-20T07:35:03;140.70;;;43.85;;
54167;SDS011;40072;50.958;3.592;2022-11-20T07:37:29;131.32;;;43.05;;
54167;SDS011;40072;50.958;3.592;2022-11-20T07:39:54;129.98;;;43.63;;
54167;SDS011;40072;50.958;3.592;2022-11-20T07:42:20;126.05;;;42.72;;
54167;SDS011;40072;50.958;3.592;2022-11-20T07:44:45;135.07;;;42.47;;
54167;SDS011;40072;50.958;3.592;2022-11-20T07:47:11;136.50;;;44.47;;
54167;SDS011;40072;50.958;3.592;2022-11-20T07:49:37;143.30;;;48.72;;
54167;SDS011;40072;50.958;3.592;2022-11-20T07:52:02;140.85;;;45.03;;
54167;SDS011;40072;50.958;3.592;2022-11-20T07:54:28;132.55;;;43.03;;
54167;SDS011;40072;50.958;3.592;2022-11-20T07:56:54;116.63;;;40.40;;
54167;SDS011;40072;50.958;3.592;2022-11-20T07:59:19;129.25;;;41.55;;
54167;SDS011;40072;50.958;3.592;2022-11-20T08:01:45;128.95;;;42.97;;
54167;SDS011;40072;50.958;3.592;2022-11-20T08:04:11;125.90;;;42.30;;
54167;SDS011;40072;50.958;3.592;2022-11-20T08:06:36;125.05;;;40.80;;
54167;SDS011;40072;50.958;3.592;2022-11-20T08:09:02;118.28;;;38.88;;
54167;SDS011;40072;50.958;3.592;2022-11-20T08:11:28;117.30;;;40.58;;
54167;SDS011;40072;50.958;3.592;2022-11-20T08:14:13;121.85;;;43.35;;
54167;SDS011;40072;50.958;3.592;2022-11-20T08:19:04;110.78;;;39.58;;
54167;SDS011;40072;50.958;3.592;2022-11-20T08:21:30;116.30;;;41.35;;
54167;SDS011;40072;50.958;3.592;2022-11-20T08:23:56;98.57;;;38.38;;
54167;SDS011;40072;50.958;3.592;2022-11-20T08:26:22;107.32;;;38.88;;
54167;SDS011;40072;50.958;3.592;2022-11-20T08:28:48;102.22;;;38.28;;
54167;SDS011;40072;50.958;3.592;2022-11-20T08:31:17;101.03;;;39.22;;
54167;SDS011;40072;50.958;3.592;2022-11-20T08:33:43;113.78;;;42.50;;
54167;SDS011;40072;50.958;3.592;2022-11-20T08:36:08;100.93;;;38.45;;
54167;SDS011;40072;50.958;3.592;2022-11-20T08:38:34;95.32;;;37.53;;
54167;SDS011;40072;50.958;3.592;2022-11-20T08:41:00;83.97;;;36.35;;
54167;SDS011;40072;50.958;3.592;2022-11-20T08:43:47;88.93;;;34.28;;
54167;SDS011;40072;50.958;3.592;2022-11-20T08:46:14;86.65;;;34.78;;
54167;SDS011;40072;50.958;3.592;2022-11-20T08:48:39;91.70;;;35.15;;
54167;SDS011;40072;50.958;3.592;2022-11-20T08:51:05;94.07;;;35.97;;
54167;SDS011;40072;50.958;3.592;2022-11-20T08:53:31;85.63;;;34.45;;
54167;SDS011;40072;50.958;3.592;2022-11-20T08:55:57;84.38;;;32.78;;
54167;SDS011;40072;50.958;3.592;2022-11-20T08:58:23;88.68;;;34.22;;
54167;SDS011;40072;50.958;3.592;2022-11-20T09:00:49;80.95;;;31.60;;
54167;SDS011;40072;50.958;3.592;2022-11-20T09:03:14;80.72;;;34.13;;
54167;SDS011;40072;50.958;3.592;2022-11-20T09:05:40;81.03;;;33.80;;
54167;SDS011;40072;50.958;3.592;2022-11-20T09:08:06;70.90;;;30.02;;
54167;SDS011;40072;50.958;3.592;2022-11-20T09:10:31;70.45;;;31.63;;
54167;SDS011;40072;50.958;3.592;2022-11-20T09:12:57;70.38;;;30.73;;
54167;SDS011;40072;50.958;3.592;2022-11-20T09:15:24;74.80;;;30.75;;
54167;SDS011;40072;50.958;3.592;2022-11-20T09:17:54;68.35;;;29.15;;
54167;SDS011;40072;50.958;3.592;2022-11-20T09:20:20;66.68;;;29.50;;
54167;SDS011;40072;50.958;3.592;2022-11-20T09:22:46;59.75;;;28.75;;
54167;SDS011;40072;50.958;3.592;2022-11-20T09:25:12;60.97;;;29.33;;
54167;SDS011;40072;50.958;3.592;2022-11-20T09:27:38;54.20;;;26.58;;
54167;SDS011;40072;50.958;3.592;2022-11-20T09:30:04;55.50;;;28.30;;
54167;SDS011;40072;50.958;3.592;2022-11-20T09:32:30;47.30;;;24.10;;
54167;SDS011;40072;50.958;3.592;2022-11-20T09:34:56;48.78;;;24.00;;
54167;SDS011;40072;50.958;3.592;2022-11-20T09:37:21;45.38;;;22.73;;
54167;SDS011;40072;50.958;3.592;2022-11-20T09:39:47;42.05;;;21.52;;
54167;SDS011;40072;50.958;3.592;2022-11-20T09:50:38;32.35;;;14.93;;
54167;SDS011;40072;50.958;3.592;2022-11-20T09:53:45;22.77;;;13.32;;
54167;SDS011;40072;50.958;3.592;2022-11-20T09:56:17;24.30;;;12.37;;
54167;SDS011;40072;50.958;3.592;2022-11-20T09:58:45;22.48;;;11.55;;
54167;SDS011;40072;50.958;3.592;2022-11-20T10:01:16;22.00;;;11.35;;
54167;SDS011;40072;50.958;3.592;2022-11-20T10:06:18;28.30;;;10.75;;
54167;SDS011;40072;50.958;3.592;2022-11-20T10:08:55;17.95;;;9.20;;
54167;SDS011;40072;50.958;3.592;2022-11-20T10:12:09;18.70;;;9.25;;
54167;SDS011;40072;50.958;3.592;2022-11-20T10:17:09;16.67;;;7.93;;
54167;SDS011;40072;50.958;3.592;2022-11-20T10:22:59;13.50;;;6.80;;
54167;SDS011;40072;50.958;3.592;2022-11-20T10:31:08;10.93;;;5.93;;
54167;SDS011;40072;50.958;3.592;2022-11-20T10:33:40;11.75;;;5.95;;
54167;SDS011;40072;50.958;3.592;2022-11-20T10:36:19;12.25;;;5.60;;
54167;SDS011;40072;50.958;3.592;2022-11-20T10:41:56;14.70;;;4.82;;
54167;SDS011;40072;50.958;3.592;2022-11-20T10:44:26;13.13;;;5.10;;
54167;SDS011;40072;50.958;3.592;2022-11-20T10:47:13;10.65;;;4.03;;
54167;SDS011;40072;50.958;3.592;2022-11-20T10:49:40;7.38;;;3.70;;
54167;SDS011;40072;50.958;3.592;2022-11-20T11:00:16;9.55;;;2.90;;
54167;SDS011;40072;50.958;3.592;2022-11-20T11:02:49;9.57;;;4.20;;
54167;SDS011;40072;50.958;3.592;2022-11-20T11:05:18;5.38;;;2.58;;
54167;SDS011;40072;50.958;3.592;2022-11-20T11:08:01;5.57;;;2.40;;
54167;SDS011;40072;50.958;3.592;2022-11-20T11:13:23;7.68;;;2.45;;
54167;SDS011;40072;50.958;3.592;2022-11-20T11:15:50;7.55;;;3.45;;
54167;SDS011;40072;50.958;3.592;2022-11-20T11:18:26;13.18;;;4.75;;
54167;SDS011;40072;50.958;3.592;2022-11-20T11:20:57;8.63;;;3.42;;
54167;SDS011;40072;50.958;3.592;2022-11-20T11:23:34;12.60;;;3.20;;
54167;SDS011;40072;50.958;3.592;2022-11-20T11:26:04;9.30;;;3.25;;
54167;SDS011;40072;50.958;3.592;2022-11-20T11:28:32;8.82;;;2.88;;
54167;SDS011;40072;50.958;3.592;2022-11-20T11:30:58;5.20;;;3.45;;
54167;SDS011;40072;50.958;3.592;2022-11-20T11:33:25;8.70;;;3.25;;
54167;SDS011;40072;50.958;3.592;2022-11-20T11:38:27;12.38;;;3.50;;
54167;SDS011;40072;50.958;3.592;2022-11-20T11:40:54;14.88;;;4.43;;
54167;SDS011;40072;50.958;3.592;2022-11-20T11:43:25;8.18;;;4.18;;
54167;SDS011;40072;50.958;3.592;2022-11-20T11:51:58;11.18;;;4.75;;
54167;SDS011;40072;50.958;3.592;2022-11-20T12:00:22;16.38;;;5.45;;
54167;SDS011;40072;50.958;3.592;2022-11-20T12:03:00;14.30;;;5.85;;
54167;SDS011;40072;50.958;3.592;2022-11-20T12:05:39;13.48;;;5.60;;
54167;SDS011;40072;50.958;3.592;2022-11-20T12:08:20;15.77;;;6.13;;
54167;SDS011;40072;50.958;3.592;2022-11-20T12:13:41;16.23;;;6.53;;
54167;SDS011;40072;50.958;3.592;2022-11-20T12:16:10;15.23;;;7.03;;
54167;SDS011;40072;50.958;3.592;2022-11-20T12:18:38;15.85;;;6.80;;
54167;SDS011;40072;50.958;3.592;2022-11-20T12:26:48;12.32;;;7.20;;
54167;SDS011;40072;50.958;3.592;2022-11-20T12:29:21;18.00;;;7.10;;
54167;SDS011;40072;50.958;3.592;2022-11-20T12:34:51;16.30;;;6.53;;
54167;SDS011;40072;50.958;3.592;2022-11-20T12:43:15;11.48;;;6.85;;
54167;SDS011;40072;50.958;3.592;2022-11-20T12:49:28;10.75;;;5.72;;
54167;SDS011;40072;50.958;3.592;2022-11-20T12:58:17;7.63;;;3.50;;
54167;SDS011;40072;50.958;3.592;2022-11-20T13:00:59;8.13;;;3.92;;
54167;SDS011;40072;50.958;3.592;2022-11-20T13:03:39;5.28;;;3.50;;
54167;SDS011;40072;50.958;3.592;2022-11-20T13:06:12;4.28;;;3.22;;
54167;SDS011;40072;50.958;3.592;2022-11-20T13:08:52;7.45;;;4.03;;
54167;SDS011;40072;50.958;3.592;2022-11-20T13:11:24;6.53;;;5.00;;
54167;SDS011;40072;50.958;3.592;2022-11-20T13:14:04;8.75;;;4.85;;
54167;SDS011;40072;50.958;3.592;2022-11-20T13:16:46;4.30;;;3.40;;
54167;SDS011;40072;50.958;3.592;2022-11-20T13:19:17;5.78;;;2.50;;
54167;SDS011;40072;50.958;3.592;2022-11-20T13:21:48;1.60;;;1.50;;
54167;SDS011;40072;50.958;3.592;2022-11-20T13:26:43;3.93;;;1.87;;
54167;SDS011;40072;50.958;3.592;2022-11-20T13:29:16;3.33;;;3.00;;
54167;SDS011;40072;50.958;3.592;2022-11-20T13:31:44;4.57;;;2.30;;
54167;SDS011;40072;50.958;3.592;2022-11-20T13:34:12;2.65;;;1.90;;
54167;SDS011;40072;50.958;3.592;2022-11-20T13:36:51;4.57;;;2.15;;
54167;SDS011;40072;50.958;3.592;2022-11-20T13:39:26;4.55;;;2.03;;
54167;SDS011;40072;50.958;3.592;2022-11-20T13:41:54;3.97;;;2.60;;
54167;SDS011;40072;50.958;3.592;2022-11-20T13:44:25;3.53;;;3.13;;
54167;SDS011;40072;50.958;3.592;2022-11-20T13:47:02;4.28;;;2.90;;
54167;SDS011;40072;50.958;3.592;2022-11-20T13:49:33;2.10;;;2.00;;
54167;SDS011;40072;50.958;3.592;2022-11-20T14:00:32;5.38;;;2.15;;
54167;SDS011;40072;50.958;3.592;2022-11-20T14:02:59;4.28;;;2.28;;
54167;SDS011;40072;50.958;3.592;2022-11-20T14:05:30;2.67;;;2.38;;
54167;SDS011;40072;50.958;3.592;2022-11-20T14:08:02;4.35;;;2.20;;
54167;SDS011;40072;50.958;3.592;2022-11-20T14:12:56;5.03;;;2.58;;
54167;SDS011;40072;50.958;3.592;2022-11-20T14:17:59;6.30;;;2.63;;
54167;SDS011;40072;50.958;3.592;2022-11-20T14:20:38;4.97;;;2.67;;
54167;SDS011;40072;50.958;3.592;2022-11-20T14:23:04;5.13;;;3.15;;
54167;SDS011;40072;50.958;3.592;2022-11-20T14:25:34;4.82;;;2.70;;
54167;SDS011;40072;50.958;3.592;2022-11-20T14:28:00;4.15;;;2.92;;
54167;SDS011;40072;50.958;3.592;2022-11-20T14:30:28;5.97;;;3.40;;
54167;SDS011;40072;50.958;3.592;2022-11-20T14:33:09;5.45;;;2.67;;
54167;SDS011;40072;50.958;3.592;2022-11-20T14:35:37;8.02;;;3.15;;
54167;SDS011;40072;50.958;3.592;2022-11-20T14:38:11;9.65;;;2.92;;
54167;SDS011;40072;50.958;3.592;2022-11-20T14:40:39;10.35;;;2.60;;
54167;SDS011;40072;50.958;3.592;2022-11-20T14:43:24;16.17;;;3.92;;
54167;SDS011;40072;50.958;3.592;2022-11-20T14:48:54;10.38;;;2.17;;
54167;SDS011;40072;50.958;3.592;2022-11-20T14:51:57;11.05;;;2.25;;
54167;SDS011;40072;50.958;3.592;2022-11-20T14:54:23;24.25;;;2.90;;
54167;SDS011;40072;50.958;3.592;2022-11-20T14:56:54;12.02;;;2.70;;
54167;SDS011;40072;50.958;3.592;2022-11-20T14:59:28;16.77;;;2.85;;
54167;SDS011;40072;50.958;3.592;2022-11-20T15:02:06;15.13;;;2.53;;
54167;SDS011;40072;50.958;3.592;2022-11-20T15:04:56;16.08;;;2.45;;
54167;SDS011;40072;50.958;3.592;2022-11-20T15:07:32;15.43;;;3.25;;
54167;SDS011;40072;50.958;3.592;2022-11-20T15:12:29;18.27;;;3.08;;
54167;SDS011;40072;50.958;3.592;2022-11-20T15:14:56;18.73;;;3.28;;
54167;SDS011;40072;50.958;3.592;2022-11-20T15:17:22;15.13;;;3.25;;
54167;SDS011;40072;50.958;3.592;2022-11-20T15:19:48;17.02;;;3.28;;
54167;SDS011;40072;50.958;3.592;2022-11-20T15:22:14;17.50;;;3.50;;
54167;SDS011;40072;50.958;3.592;2022-11-20T15:24:41;16.33;;;3.65;;
54167;SDS011;40072;50.958;3.592;2022-11-20T15:27:07;15.80;;;3.55;;
54167;SDS011;40072;50.958;3.592;2022-11-20T15:29:34;18.55;;;3.47;;
54167;SDS011;40072;50.958;3.592;2022-11-20T15:31:59;23.85;;;3.40;;
54167;SDS011;40072;50.958;3.592;2022-11-20T15:34:26;15.80;;;2.97;;
54167;SDS011;40072;50.958;3.592;2022-11-20T15:36:52;15.02;;;3.67;;
54167;SDS011;40072;50.958;3.592;2022-11-20T15:39:19;21.98;;;4.03;;
54167;SDS011;40072;50.958;3.592;2022-11-20T15:41:45;19.33;;;3.25;;
54167;SDS011;40072;50.958;3.592;2022-11-20T15:44:11;24.42;;;4.15;;
54167;SDS011;40072;50.958;3.592;2022-11-20T15:46:37;18.67;;;4.03;;
54167;SDS011;40072;50.958;3.592;2022-11-20T15:49:10;16.85;;;3.13;;
54167;SDS011;40072;50.958;3.592;2022-11-20T15:51:38;20.30;;;4.50;;
54167;SDS011;40072;50.958;3.592;2022-11-20T15:54:13;27.33;;;4.32;;
54167;SDS011;40072;50.958;3.592;2022-11-20T15:56:43;15.52;;;3.50;;
54167;SDS011;40072;50.958;3.592;2022-11-20T15:59:08;22.95;;;3.97;;
54167;SDS011;40072;50.958;3.592;2022-11-20T16:01:34;23.52;;;4.47;;
54167;SDS011;40072;50.958;3.592;2022-11-20T16:04:00;22.75;;;4.05;;
54167;SDS011;40072;50.958;3.592;2022-11-20T16:06:26;18.40;;;4.63;;
54167;SDS011;40072;50.958;3.592;2022-11-20T16:08:51;21.95;;;5.53;;
54167;SDS011;40072;50.958;3.592;2022-11-20T16:11:17;26.60;;;7.65;;
54167;SDS011;40072;50.958;3.592;2022-11-20T16:13:43;26.95;;;7.18;;
54167;SDS011;40072;50.958;3.592;2022-11-20T16:16:34;25.63;;;4.25;;
54167;SDS011;40072;50.958;3.592;2022-11-20T16:19:01;27.35;;;4.55;;
54167;SDS011;40072;50.958;3.592;2022-11-20T16:21:27;18.15;;;3.55;;
54167;SDS011;40072;50.958;3.592;2022-11-20T16:24:00;23.38;;;4.50;;
54167;SDS011;40072;50.958;3.592;2022-11-20T16:26:28;27.00;;;3.83;;
54167;SDS011;40072;50.958;3.592;2022-11-20T16:28:54;18.30;;;3.75;;
54167;SDS011;40072;50.958;3.592;2022-11-20T16:31:20;29.00;;;4.30;;
54167;SDS011;40072;50.958;3.592;2022-11-20T16:33:50;23.65;;;4.13;;
54167;SDS011;40072;50.958;3.592;2022-11-20T16:36:17;28.05;;;4.10;;